createdAt,value
2023-01-21T00:00:44.118Z,95.57
2023-01-21T00:05:53.336Z,95.55
2023-01-21T00:11:05.031Z,95.50
2023-01-21T00:16:12.230Z,95.48
2023-01-21T00:21:14.908Z,95.47
2023-01-21T00:26:17.353Z,95.47
2023-01-21T00:31:20.489Z,95.50
2023-01-21T00:36:34.088Z,95.52
2023-01-21T00:41:37.916Z,95.48
2023-01-21T00:46:40.633Z,95.50
2023-01-21T00:51:43.678Z,95.51
2023-01-21T00:56:46.373Z,95.49
2023-01-21T01:01:49.092Z,95.49
2023-01-21T01:06:52.131Z,95.52
2023-01-21T01:11:54.690Z,95.53
2023-01-21T01:16:57.079Z,95.48
2023-01-21T01:21:59.431Z,95.46
2023-01-21T01:27:02.360Z,95.49
2023-01-21T01:32:09.633Z,95.51
2023-01-21T01:37:12.243Z,95.57
2023-01-21T01:42:16.272Z,95.54
2023-01-21T01:47:20.314Z,95.60
2023-01-21T01:52:23.263Z,95.61
2023-01-21T01:57:40.020Z,95.66
2023-01-21T02:03:09.590Z,95.69
2023-01-21T02:08:15.480Z,95.61
2023-01-21T02:13:18.151Z,95.58
2023-01-21T02:18:48.616Z,95.53
2023-01-21T02:23:57.314Z,95.63
2023-01-21T02:29:52.660Z,95.65
2023-01-21T02:35:05.658Z,95.60
2023-01-21T02:40:25.465Z,95.58
2023-01-21T02:45:39.386Z,95.57
2023-01-21T02:50:49.920Z,95.52
2023-01-21T02:55:53.611Z,95.56
2023-01-21T03:01:24.581Z,95.55
2023-01-21T03:06:41.425Z,95.47
2023-01-21T03:11:54.108Z,95.48
2023-01-21T03:17:32.752Z,95.49
2023-01-21T03:22:37.211Z,95.50
2023-01-21T03:27:43.893Z,95.58
2023-01-21T03:32:51.839Z,95.59
2023-01-21T03:38:00.918Z,95.52
2023-01-21T03:43:04.194Z,95.42
2023-01-21T03:48:16.479Z,95.33
2023-01-21T03:53:22.406Z,95.23
2023-01-21T03:58:28.073Z,95.32
2023-01-21T04:03:33.006Z,95.39
2023-01-21T04:08:35.490Z,95.42
2023-01-21T04:13:40.122Z,95.42
2023-01-21T04:18:57.266Z,95.49
2023-01-21T04:23:59.578Z,95.51
2023-01-21T04:29:02.089Z,95.55
2023-01-21T04:34:04.568Z,95.51
2023-01-21T04:39:11.530Z,95.48
2023-01-21T04:44:14.299Z,95.46
2023-01-21T04:49:16.580Z,95.45
2023-01-21T04:54:19.526Z,95.31
2023-01-21T04:59:22.149Z,95.30
2023-01-21T05:04:24.085Z,95.32
2023-01-21T05:09:26.726Z,95.25
2023-01-21T05:14:29.303Z,94.88
2023-01-21T05:19:31.378Z,94.89
2023-01-21T05:24:33.354Z,95.05
2023-01-21T05:29:35.413Z,95.15
2023-01-21T05:34:38.178Z,95.21
2023-01-21T05:39:40.528Z,95.31
2023-01-21T05:44:42.646Z,95.21
2023-01-21T05:49:45.459Z,95.11
2023-01-21T05:55:01.033Z,95.25
2023-01-21T06:00:05.549Z,95.33
2023-01-21T06:05:08.291Z,95.19
2023-01-21T06:10:11.101Z,95.19
2023-01-21T06:15:14.142Z,95.26
2023-01-21T06:20:17.556Z,95.15
2023-01-21T06:25:20.004Z,95.04
2023-01-21T06:30:24.016Z,95.18
2023-01-21T06:35:26.376Z,95.18
2023-01-21T06:40:28.696Z,95.12
2023-01-21T06:45:31.335Z,95.07
2023-01-21T06:50:33.294Z,95.23
2023-01-21T06:55:35.610Z,95.33
2023-01-21T07:00:38.089Z,95.31
2023-01-21T07:05:40.818Z,95.40
2023-01-21T07:10:43.091Z,95.38
2023-01-21T07:15:46.191Z,95.31
2023-01-21T07:20:48.289Z,95.26
2023-01-21T07:25:50.565Z,95.14
2023-01-21T07:30:53.560Z,95.01
2023-01-21T07:35:56.036Z,94.92
2023-01-21T07:40:58.175Z,95.01
2023-01-21T07:46:00.837Z,95.16
2023-01-21T07:51:03.615Z,95.29
2023-01-21T07:56:10.027Z,95.31
2023-01-21T08:01:13.646Z,95.19
2023-01-21T08:06:16.542Z,95.24
2023-01-21T08:11:19.505Z,95.19
2023-01-21T08:16:24.986Z,95.07
2023-01-21T08:21:28.004Z,94.98
2023-01-21T08:26:30.214Z,94.96
2023-01-21T08:31:40.062Z,95.21
2023-01-21T08:36:47.596Z,95.29
2023-01-21T08:41:55.008Z,95.39
2023-01-21T08:46:56.997Z,95.34
2023-01-21T08:51:59.805Z,95.14
2023-01-21T08:57:04.672Z,95.17
2023-01-21T09:02:11.692Z,95.30
2023-01-21T09:07:17.735Z,95.30
2023-01-21T09:12:20.072Z,95.05
2023-01-21T09:17:26.296Z,95.17
2023-01-21T09:22:28.706Z,95.30
2023-01-21T09:27:31.502Z,94.95
2023-01-21T09:32:37.290Z,94.94
2023-01-21T09:37:40.009Z,94.85
2023-01-21T09:42:42.843Z,94.86
2023-01-21T09:47:50.065Z,94.92
2023-01-21T09:52:59.505Z,95.10
2023-01-21T09:58:08.052Z,95.25
2023-01-21T10:03:22.777Z,95.21
2023-01-21T10:08:35.201Z,95.31
2023-01-21T10:13:40.181Z,95.34
2023-01-21T10:18:48.705Z,95.40
2023-01-21T10:24:04.213Z,95.42
2023-01-21T10:29:06.752Z,95.42
2023-01-21T10:34:18.074Z,95.30
2023-01-21T10:39:30.568Z,95.26
2023-01-21T10:44:51.221Z,95.35
2023-01-21T10:50:25.151Z,95.04
2023-01-21T10:56:00.246Z,95.29
2023-01-21T11:01:06.863Z,95.09
2023-01-21T11:06:13.641Z,94.80
2023-01-21T11:11:27.006Z,94.79
2023-01-21T11:16:45.962Z,94.80
2023-01-21T11:22:16.325Z,94.80
2023-01-21T11:27:40.933Z,94.91
2023-01-21T11:32:43.155Z,94.90
2023-01-21T11:37:46.274Z,94.81
2023-01-21T11:42:54.624Z,94.86
2023-01-21T11:47:58.449Z,94.84
2023-01-21T11:53:06.822Z,94.96
2023-01-21T11:58:24.200Z,95.07
2023-01-21T12:03:35.363Z,95.23
2023-01-21T12:08:38.773Z,95.18
2023-01-21T12:13:54.350Z,95.06
2023-01-21T12:19:18.483Z,95.09
2023-01-21T12:24:47.847Z,95.28
2023-01-21T12:30:07.992Z,95.25
2023-01-21T12:35:32.180Z,95.32
2023-01-21T12:40:52.324Z,95.41
2023-01-21T12:46:00.423Z,95.57
2023-01-21T12:51:33.208Z,95.50
2023-01-21T12:56:43.515Z,95.54
2023-01-21T13:01:48.495Z,95.60
2023-01-21T13:06:56.397Z,95.66
2023-01-21T13:12:06.500Z,95.68
2023-01-21T13:17:19.123Z,95.72
2023-01-21T13:23:02.628Z,95.77
2023-01-21T13:28:26.120Z,95.79
2023-01-21T13:33:44.384Z,95.84
2023-01-21T13:39:34.291Z,95.88
2023-01-21T13:44:45.583Z,95.90
2023-01-21T13:50:06.612Z,95.91
2023-01-21T13:55:26.134Z,95.93
2023-01-21T14:00:34.318Z,95.92
2023-01-21T14:05:46.144Z,95.91
2023-01-21T14:11:08.006Z,95.89
2023-01-21T14:16:34.776Z,95.88
2023-01-21T14:21:54.853Z,95.90
2023-01-21T14:27:19.238Z,95.89
2023-01-21T14:32:44.183Z,95.91
2023-01-21T14:38:20.750Z,95.94
2023-01-21T14:43:32.677Z,95.98
2023-01-21T14:48:35.713Z,95.99
2023-01-21T14:53:46.556Z,96.01
2023-01-21T14:59:13.552Z,96.00
2023-01-21T15:04:23.983Z,96.07
2023-01-21T15:09:51.809Z,96.08
2023-01-21T15:14:59.943Z,96.07
2023-01-21T15:20:44.065Z,96.07
2023-01-21T15:26:06.161Z,96.09
2023-01-21T15:31:11.378Z,96.10
2023-01-21T15:36:22.246Z,96.12
2023-01-21T15:41:24.669Z,96.15
2023-01-21T15:47:14.270Z,96.21
2023-01-21T15:52:24.549Z,96.27
2023-01-21T15:57:49.609Z,96.30
2023-01-21T16:03:02.481Z,96.35
2023-01-21T16:08:22.068Z,96.38
2023-01-21T16:13:33.628Z,96.41
2023-01-21T16:18:39.053Z,96.40
2023-01-21T16:23:43.119Z,96.44
2023-01-21T16:28:49.812Z,96.47
2023-01-21T16:33:53.790Z,96.49
2023-01-21T16:39:06.699Z,96.48
2023-01-21T16:44:15.638Z,96.51
2023-01-21T16:49:20.074Z,96.53
2023-01-21T16:54:32.690Z,96.53
2023-01-21T16:59:39.072Z,96.56
2023-01-21T17:04:41.421Z,96.58
2023-01-21T17:09:44.332Z,96.60
2023-01-21T17:14:46.576Z,96.62
2023-01-21T17:19:50.984Z,96.62
2023-01-21T17:25:02.034Z,96.62
2023-01-21T17:30:29.601Z,96.63
2023-01-21T17:35:49.078Z,96.60
2023-01-21T17:41:08.325Z,96.58
2023-01-21T17:46:14.214Z,96.56
2023-01-21T17:51:20.525Z,96.57
2023-01-21T17:56:51.623Z,96.59
2023-01-21T18:01:58.540Z,96.60
2023-01-21T18:07:15.575Z,96.63
2023-01-21T18:12:19.603Z,96.65
2023-01-21T18:17:28.558Z,96.65
2023-01-21T18:22:32.463Z,96.65
2023-01-21T18:27:35.889Z,96.65
2023-01-21T18:32:40.623Z,96.64
2023-01-21T18:37:44.969Z,96.66
2023-01-21T18:42:52.886Z,96.67
2023-01-21T18:47:57.442Z,96.69
2023-01-21T18:53:00.660Z,96.71
2023-01-21T18:58:07.648Z,96.71
2023-01-21T19:03:15.832Z,96.72
2023-01-21T19:08:23.372Z,96.72
2023-01-21T19:13:25.786Z,96.73
2023-01-21T19:18:28.137Z,96.74
2023-01-21T19:23:30.582Z,96.77
2023-01-21T19:28:34.482Z,96.79
2023-01-21T19:33:37.624Z,96.78
2023-01-21T19:38:43.216Z,96.79
2023-01-21T19:43:46.499Z,96.80
2023-01-21T19:48:50.549Z,96.81
2023-01-21T19:53:53.016Z,96.80
2023-01-21T19:58:56.103Z,96.80
2023-01-21T20:04:01.251Z,96.79
2023-01-21T20:09:04.659Z,96.79
2023-01-21T20:14:07.626Z,96.79
2023-01-21T20:19:14.800Z,96.79
2023-01-21T20:24:21.192Z,96.78
2023-01-21T20:29:23.452Z,96.78
2023-01-21T20:34:28.270Z,96.78
2023-01-21T20:39:31.309Z,96.78
2023-01-21T20:44:33.956Z,96.78
2023-01-21T20:49:35.993Z,96.74
2023-01-21T20:54:39.148Z,96.65
2023-01-21T20:59:41.767Z,96.63
2023-01-21T21:04:45.110Z,96.63
2023-01-21T21:09:47.248Z,96.58
2023-01-21T21:14:49.893Z,96.57
2023-01-21T21:19:51.936Z,96.58
2023-01-21T21:24:55.939Z,96.60
2023-01-21T21:29:59.442Z,96.62
2023-01-21T21:35:05.129Z,96.65
2023-01-21T21:40:09.374Z,96.63
2023-01-21T21:45:11.689Z,96.63
2023-01-21T21:50:14.638Z,96.62
2023-01-21T21:55:19.680Z,96.61
2023-01-21T22:00:22.213Z,96.60
2023-01-21T22:05:25.065Z,96.62
2023-01-21T22:10:31.585Z,96.63
2023-01-21T22:15:34.261Z,96.63
2023-01-21T22:20:36.222Z,96.63
2023-01-21T22:25:38.350Z,96.66
2023-01-21T22:30:40.801Z,96.66
2023-01-21T22:35:45.314Z,96.66
2023-01-21T22:40:55.528Z,96.65
2023-01-21T22:45:59.348Z,96.65
2023-01-21T22:51:15.660Z,96.66
2023-01-21T22:56:25.399Z,96.65
2023-01-21T23:01:34.122Z,96.65
2023-01-21T23:06:37.839Z,96.64
2023-01-21T23:11:41.599Z,96.65
2023-01-21T23:16:43.630Z,96.66
2023-01-21T23:21:45.887Z,96.63
2023-01-21T23:26:47.986Z,96.60
2023-01-21T23:31:51.875Z,96.57
2023-01-21T23:36:54.324Z,96.53
2023-01-21T23:41:56.533Z,96.48
2023-01-21T23:46:59.130Z,96.45
2023-01-21T23:52:12.618Z,96.44
2023-01-21T23:57:15.035Z,96.44
